sensor_id;sensor_type;location;lat;lon;timestamp;P1;durP1;ratioP1;P2;durP2;ratioP2
19664;SDS011;9980;51.020;7.772;2023-03-23T00:01:02;2.60;;;2.20;;
19664;SDS011;9980;51.020;7.772;2023-03-23T00:03:30;2.90;;;2.50;;
19664;SDS011;9980;51.020;7.772;2023-03-23T00:05:59;2.30;;;2.03;;
19664;SDS011;9980;51.020;7.772;2023-03-23T00:08:27;3.27;;;2.23;;
19664;SDS011;9980;51.020;7.772;2023-03-23T00:10:53;2.93;;;2.63;;
19664;SDS011;9980;51.020;7.772;2023-03-23T00:13:25;4.13;;;2.30;;
19664;SDS011;9980;51.020;7.772;2023-03-23T00:15:53;2.97;;;2.40;;
19664;SDS011;9980;51.020;7.772;2023-03-23T00:18:22;2.67;;;2.27;;
19664;SDS011;9980;51.020;7.772;2023-03-23T00:20:49;2.73;;;2.30;;
19664;SDS011;9980;51.020;7.772;2023-03-23T00:23:22;2.87;;;2.57;;
19664;SDS011;9980;51.020;7.772;2023-03-23T00:25:52;2.53;;;2.30;;
19664;SDS011;9980;51.020;7.772;2023-03-23T00:28:23;3.57;;;2.10;;
19664;SDS011;9980;51.020;7.772;2023-03-23T00:31:10;2.90;;;2.67;;
19664;SDS011;9980;51.020;7.772;2023-03-23T00:33:36;2.77;;;2.57;;
19664;SDS011;9980;51.020;7.772;2023-03-23T00:36:03;2.67;;;2.30;;
19664;SDS011;9980;51.020;7.772;2023-03-23T00:38:30;2.60;;;2.40;;
19664;SDS011;9980;51.020;7.772;2023-03-23T00:40:57;6.10;;;2.83;;
19664;SDS011;9980;51.020;7.772;2023-03-23T00:43:27;3.80;;;2.50;;
19664;SDS011;9980;51.020;7.772;2023-03-23T00:45:54;3.33;;;2.60;;
19664;SDS011;9980;51.020;7.772;2023-03-23T00:48:26;3.97;;;2.60;;
19664;SDS011;9980;51.020;7.772;2023-03-23T00:50:54;2.90;;;2.40;;
19664;SDS011;9980;51.020;7.772;2023-03-23T00:53:21;3.10;;;2.73;;
19664;SDS011;9980;51.020;7.772;2023-03-23T00:55:48;3.80;;;2.77;;
19664;SDS011;9980;51.020;7.772;2023-03-23T00:58:15;2.70;;;2.50;;
19664;SDS011;9980;51.020;7.772;2023-03-23T01:00:41;3.00;;;2.70;;
19664;SDS011;9980;51.020;7.772;2023-03-23T01:03:08;3.17;;;2.77;;
19664;SDS011;9980;51.020;7.772;2023-03-23T01:05:37;2.77;;;2.33;;
19664;SDS011;9980;51.020;7.772;2023-03-23T01:08:05;3.20;;;2.20;;
19664;SDS011;9980;51.020;7.772;2023-03-23T01:10:32;2.50;;;2.30;;
19664;SDS011;9980;51.020;7.772;2023-03-23T01:12:59;6.10;;;2.30;;
19664;SDS011;9980;51.020;7.772;2023-03-23T01:15:26;2.73;;;2.20;;
19664;SDS011;9980;51.020;7.772;2023-03-23T01:17:54;3.97;;;2.70;;
19664;SDS011;9980;51.020;7.772;2023-03-23T01:20:20;2.60;;;2.40;;
19664;SDS011;9980;51.020;7.772;2023-03-23T01:22:47;2.87;;;2.67;;
19664;SDS011;9980;51.020;7.772;2023-03-23T01:25:13;3.73;;;2.53;;
19664;SDS011;9980;51.020;7.772;2023-03-23T01:27:40;2.63;;;1.97;;
19664;SDS011;9980;51.020;7.772;2023-03-23T01:30:07;3.73;;;2.30;;
19664;SDS011;9980;51.020;7.772;2023-03-23T01:32:37;2.53;;;2.33;;
19664;SDS011;9980;51.020;7.772;2023-03-23T01:35:04;2.40;;;2.20;;
19664;SDS011;9980;51.020;7.772;2023-03-23T01:37:31;2.27;;;2.00;;
19664;SDS011;9980;51.020;7.772;2023-03-23T01:39:57;3.30;;;2.00;;
19664;SDS011;9980;51.020;7.772;2023-03-23T01:42:24;4.33;;;2.30;;
19664;SDS011;9980;51.020;7.772;2023-03-23T01:47:59;3.20;;;2.00;;
19664;SDS011;9980;51.020;7.772;2023-03-23T01:50:34;2.70;;;2.20;;
19664;SDS011;9980;51.020;7.772;2023-03-23T01:53:09;2.57;;;2.20;;
19664;SDS011;9980;51.020;7.772;2023-03-23T01:55:37;2.30;;;2.10;;
19664;SDS011;9980;51.020;7.772;2023-03-23T01:58:07;2.20;;;2.10;;
19664;SDS011;9980;51.020;7.772;2023-03-23T02:00:36;2.03;;;1.93;;
19664;SDS011;9980;51.020;7.772;2023-03-23T02:03:05;2.10;;;1.90;;
19664;SDS011;9980;51.020;7.772;2023-03-23T02:05:36;3.10;;;2.07;;
19664;SDS011;9980;51.020;7.772;2023-03-23T02:08:11;2.23;;;2.00;;
19664;SDS011;9980;51.020;7.772;2023-03-23T02:10:39;2.50;;;2.17;;
19664;SDS011;9980;51.020;7.772;2023-03-23T02:13:08;3.83;;;2.27;;
19664;SDS011;9980;51.020;7.772;2023-03-23T02:15:45;2.10;;;1.90;;
19664;SDS011;9980;51.020;7.772;2023-03-23T02:18:16;3.17;;;2.20;;
19664;SDS011;9980;51.020;7.772;2023-03-23T02:20:54;3.03;;;2.23;;
19664;SDS011;9980;51.020;7.772;2023-03-23T02:27:46;2.70;;;2.40;;
19664;SDS011;9980;51.020;7.772;2023-03-23T02:30:37;3.33;;;2.30;;
19664;SDS011;9980;51.020;7.772;2023-03-23T02:39:29;3.53;;;2.23;;
19664;SDS011;9980;51.020;7.772;2023-03-23T02:42:05;2.20;;;2.00;;
19664;SDS011;9980;51.020;7.772;2023-03-23T02:44:36;3.57;;;2.10;;
19664;SDS011;9980;51.020;7.772;2023-03-23T02:47:07;2.77;;;2.47;;
19664;SDS011;9980;51.020;7.772;2023-03-23T02:49:41;2.63;;;2.20;;
19664;SDS011;9980;51.020;7.772;2023-03-23T02:52:11;2.70;;;2.00;;
19664;SDS011;9980;51.020;7.772;2023-03-23T02:54:44;3.10;;;1.93;;
19664;SDS011;9980;51.020;7.772;2023-03-23T02:57:14;2.40;;;2.20;;
19664;SDS011;9980;51.020;7.772;2023-03-23T02:59:42;2.40;;;2.20;;
19664;SDS011;9980;51.020;7.772;2023-03-23T03:02:18;2.57;;;2.07;;
19664;SDS011;9980;51.020;7.772;2023-03-23T03:05:01;2.63;;;2.10;;
19664;SDS011;9980;51.020;7.772;2023-03-23T03:07:49;2.20;;;2.07;;
19664;SDS011;9980;51.020;7.772;2023-03-23T03:10:27;2.37;;;2.17;;
19664;SDS011;9980;51.020;7.772;2023-03-23T03:18:58;2.47;;;2.27;;
19664;SDS011;9980;51.020;7.772;2023-03-23T03:21:41;2.13;;;2.00;;
19664;SDS011;9980;51.020;7.772;2023-03-23T03:24:15;2.53;;;2.27;;
19664;SDS011;9980;51.020;7.772;2023-03-23T03:26:49;2.23;;;2.03;;
19664;SDS011;9980;51.020;7.772;2023-03-23T03:29:31;1.90;;;1.80;;
19664;SDS011;9980;51.020;7.772;2023-03-23T03:32:03;2.40;;;2.20;;
19664;SDS011;9980;51.020;7.772;2023-03-23T03:34:33;2.30;;;2.10;;
19664;SDS011;9980;51.020;7.772;2023-03-23T03:37:02;2.30;;;2.10;;
19664;SDS011;9980;51.020;7.772;2023-03-23T03:39:34;2.43;;;2.20;;
19664;SDS011;9980;51.020;7.772;2023-03-23T03:42:03;2.90;;;2.60;;
19664;SDS011;9980;51.020;7.772;2023-03-23T03:44:31;2.30;;;2.20;;
19664;SDS011;9980;51.020;7.772;2023-03-23T03:46:58;2.97;;;2.73;;
19664;SDS011;9980;51.020;7.772;2023-03-23T03:49:24;2.40;;;2.20;;
19664;SDS011;9980;51.020;7.772;2023-03-23T03:51:52;2.20;;;2.00;;
19664;SDS011;9980;51.020;7.772;2023-03-23T03:54:23;2.60;;;2.40;;
19664;SDS011;9980;51.020;7.772;2023-03-23T03:56:49;2.40;;;2.20;;
19664;SDS011;9980;51.020;7.772;2023-03-23T03:59:49;2.70;;;2.23;;
19664;SDS011;9980;51.020;7.772;2023-03-23T04:02:35;3.10;;;2.33;;
19664;SDS011;9980;51.020;7.772;2023-03-23T04:05:01;2.37;;;2.17;;
19664;SDS011;9980;51.020;7.772;2023-03-23T04:07:29;2.70;;;2.50;;
19664;SDS011;9980;51.020;7.772;2023-03-23T04:09:56;2.50;;;2.30;;
19664;SDS011;9980;51.020;7.772;2023-03-23T04:12:22;2.70;;;2.50;;
19664;SDS011;9980;51.020;7.772;2023-03-23T04:15:08;2.50;;;2.30;;
19664;SDS011;9980;51.020;7.772;2023-03-23T04:17:35;4.10;;;2.40;;
19664;SDS011;9980;51.020;7.772;2023-03-23T04:20:01;5.33;;;2.80;;
19664;SDS011;9980;51.020;7.772;2023-03-23T04:22:38;2.90;;;2.70;;
19664;SDS011;9980;51.020;7.772;2023-03-23T04:25:04;3.10;;;2.90;;
19664;SDS011;9980;51.020;7.772;2023-03-23T04:27:35;2.57;;;2.37;;
19664;SDS011;9980;51.020;7.772;2023-03-23T04:30:03;4.60;;;2.47;;
19664;SDS011;9980;51.020;7.772;2023-03-23T04:32:43;2.80;;;2.60;;
19664;SDS011;9980;51.020;7.772;2023-03-23T04:35:13;3.20;;;2.20;;
19664;SDS011;9980;51.020;7.772;2023-03-23T04:37:47;2.23;;;2.03;;
19664;SDS011;9980;51.020;7.772;2023-03-23T04:40:16;2.23;;;2.03;;
19664;SDS011;9980;51.020;7.772;2023-03-23T04:42:51;3.87;;;2.20;;
19664;SDS011;9980;51.020;7.772;2023-03-23T04:45:31;2.57;;;2.37;;
19664;SDS011;9980;51.020;7.772;2023-03-23T04:48:00;2.70;;;2.27;;
19664;SDS011;9980;51.020;7.772;2023-03-23T04:50:39;2.10;;;2.00;;
19664;SDS011;9980;51.020;7.772;2023-03-23T04:53:14;2.73;;;2.53;;
19664;SDS011;9980;51.020;7.772;2023-03-23T04:55:43;2.77;;;2.20;;
19664;SDS011;9980;51.020;7.772;2023-03-23T04:58:13;2.33;;;2.13;;
19664;SDS011;9980;51.020;7.772;2023-03-23T05:01:04;3.23;;;2.53;;
19664;SDS011;9980;51.020;7.772;2023-03-23T05:03:32;2.40;;;2.20;;
19664;SDS011;9980;51.020;7.772;2023-03-23T05:06:01;2.80;;;2.50;;
19664;SDS011;9980;51.020;7.772;2023-03-23T05:08:29;2.33;;;2.20;;
19664;SDS011;9980;51.020;7.772;2023-03-23T05:10:57;2.70;;;2.50;;
19664;SDS011;9980;51.020;7.772;2023-03-23T05:13:30;3.13;;;2.37;;
19664;SDS011;9980;51.020;7.772;2023-03-23T05:16:02;3.60;;;2.30;;
19664;SDS011;9980;51.020;7.772;2023-03-23T05:18:31;2.33;;;2.20;;
19664;SDS011;9980;51.020;7.772;2023-03-23T05:20:59;2.53;;;2.33;;
19664;SDS011;9980;51.020;7.772;2023-03-23T05:23:33;2.40;;;2.20;;
19664;SDS011;9980;51.020;7.772;2023-03-23T05:26:10;3.00;;;2.40;;
19664;SDS011;9980;51.020;7.772;2023-03-23T05:28:35;2.70;;;2.50;;
19664;SDS011;9980;51.020;7.772;2023-03-23T05:31:15;2.47;;;2.27;;
19664;SDS011;9980;51.020;7.772;2023-03-23T05:33:41;3.50;;;2.33;;
19664;SDS011;9980;51.020;7.772;2023-03-23T05:36:26;2.33;;;2.13;;
19664;SDS011;9980;51.020;7.772;2023-03-23T05:39:07;2.70;;;2.50;;
19664;SDS011;9980;51.020;7.772;2023-03-23T05:41:53;3.30;;;2.50;;
19664;SDS011;9980;51.020;7.772;2023-03-23T05:44:22;2.67;;;2.33;;
19664;SDS011;9980;51.020;7.772;2023-03-23T05:46:51;2.87;;;2.60;;
19664;SDS011;9980;51.020;7.772;2023-03-23T05:49:17;2.60;;;2.37;;
19664;SDS011;9980;51.020;7.772;2023-03-23T05:51:45;4.00;;;2.53;;
19664;SDS011;9980;51.020;7.772;2023-03-23T05:54:13;2.70;;;2.50;;
19664;SDS011;9980;51.020;7.772;2023-03-23T05:56:41;2.60;;;2.40;;
19664;SDS011;9980;51.020;7.772;2023-03-23T05:59:26;2.80;;;2.60;;
19664;SDS011;9980;51.020;7.772;2023-03-23T06:01:54;2.77;;;2.57;;
19664;SDS011;9980;51.020;7.772;2023-03-23T06:04:21;2.70;;;2.50;;
19664;SDS011;9980;51.020;7.772;2023-03-23T06:07:05;2.70;;;2.50;;
19664;SDS011;9980;51.020;7.772;2023-03-23T06:09:31;2.33;;;2.13;;
19664;SDS011;9980;51.020;7.772;2023-03-23T06:12:03;2.70;;;2.50;;
19664;SDS011;9980;51.020;7.772;2023-03-23T06:14:48;2.97;;;2.30;;
19664;SDS011;9980;51.020;7.772;2023-03-23T06:17:18;3.00;;;2.70;;
19664;SDS011;9980;51.020;7.772;2023-03-23T06:19:47;2.50;;;2.30;;
19664;SDS011;9980;51.020;7.772;2023-03-23T06:22:16;2.67;;;2.50;;
19664;SDS011;9980;51.020;7.772;2023-03-23T06:25:02;3.40;;;3.10;;
19664;SDS011;9980;51.020;7.772;2023-03-23T06:27:36;3.53;;;3.23;;
19664;SDS011;9980;51.020;7.772;2023-03-23T06:30:03;2.50;;;2.30;;
19664;SDS011;9980;51.020;7.772;2023-03-23T06:32:31;2.60;;;2.40;;
19664;SDS011;9980;51.020;7.772;2023-03-23T06:34:59;2.70;;;2.50;;
19664;SDS011;9980;51.020;7.772;2023-03-23T06:37:43;2.87;;;2.67;;
19664;SDS011;9980;51.020;7.772;2023-03-23T06:40:17;2.87;;;2.60;;
19664;SDS011;9980;51.020;7.772;2023-03-23T06:42:56;2.90;;;2.70;;
19664;SDS011;9980;51.020;7.772;2023-03-23T06:45:42;2.50;;;2.30;;
19664;SDS011;9980;51.020;7.772;2023-03-23T06:48:43;2.80;;;2.57;;
19664;SDS011;9980;51.020;7.772;2023-03-23T06:51:14;2.50;;;2.30;;
19664;SDS011;9980;51.020;7.772;2023-03-23T06:53:45;2.40;;;2.30;;
19664;SDS011;9980;51.020;7.772;2023-03-23T06:56:12;2.67;;;2.47;;
19664;SDS011;9980;51.020;7.772;2023-03-23T06:58:40;2.70;;;2.50;;
19664;SDS011;9980;51.020;7.772;2023-03-23T07:01:11;3.67;;;2.70;;
19664;SDS011;9980;51.020;7.772;2023-03-23T07:03:41;2.63;;;2.10;;
19664;SDS011;9980;51.020;7.772;2023-03-23T07:06:10;2.90;;;2.37;;
19664;SDS011;9980;51.020;7.772;2023-03-23T07:08:44;2.90;;;2.70;;
19664;SDS011;9980;51.020;7.772;2023-03-23T07:11:14;2.23;;;2.07;;
19664;SDS011;9980;51.020;7.772;2023-03-23T07:13:40;2.27;;;2.17;;
19664;SDS011;9980;51.020;7.772;2023-03-23T07:16:07;3.00;;;2.70;;
19664;SDS011;9980;51.020;7.772;2023-03-23T07:18:33;3.30;;;2.47;;
19664;SDS011;9980;51.020;7.772;2023-03-23T07:21:02;2.20;;;2.10;;
19664;SDS011;9980;51.020;7.772;2023-03-23T07:23:30;3.47;;;2.30;;
19664;SDS011;9980;51.020;7.772;2023-03-23T07:26:00;2.67;;;2.23;;
19664;SDS011;9980;51.020;7.772;2023-03-23T07:28:34;3.57;;;2.10;;
19664;SDS011;9980;51.020;7.772;2023-03-23T07:31:09;2.50;;;2.30;;
19664;SDS011;9980;51.020;7.772;2023-03-23T07:33:35;2.47;;;2.27;;
19664;SDS011;9980;51.020;7.772;2023-03-23T07:36:03;2.10;;;1.90;;
19664;SDS011;9980;51.020;7.772;2023-03-23T07:38:30;2.10;;;1.90;;
19664;SDS011;9980;51.020;7.772;2023-03-23T07:40:57;2.30;;;2.10;;
19664;SDS011;9980;51.020;7.772;2023-03-23T07:43:23;1.83;;;1.73;;
19664;SDS011;9980;51.020;7.772;2023-03-23T07:46:08;3.10;;;2.13;;
19664;SDS011;9980;51.020;7.772;2023-03-23T07:48:53;2.40;;;1.90;;
19664;SDS011;9980;51.020;7.772;2023-03-23T07:51:23;2.20;;;2.00;;
19664;SDS011;9980;51.020;7.772;2023-03-23T07:53:50;2.30;;;2.10;;
19664;SDS011;9980;51.020;7.772;2023-03-23T07:56:36;2.37;;;1.90;;
19664;SDS011;9980;51.020;7.772;2023-03-23T07:59:19;2.10;;;1.90;;
19664;SDS011;9980;51.020;7.772;2023-03-23T08:01:45;2.53;;;2.10;;
19664;SDS011;9980;51.020;7.772;2023-03-23T08:04:26;2.90;;;1.97;;
19664;SDS011;9980;51.020;7.772;2023-03-23T08:07:11;2.27;;;2.00;;
19664;SDS011;9980;51.020;7.772;2023-03-23T08:09:50;2.33;;;2.13;;
19664;SDS011;9980;51.020;7.772;2023-03-23T08:12:22;2.90;;;1.80;;
19664;SDS011;9980;51.020;7.772;2023-03-23T08:15:26;2.73;;;1.90;;
19664;SDS011;9980;51.020;7.772;2023-03-23T08:18:21;2.47;;;2.27;;
19664;SDS011;9980;51.020;7.772;2023-03-23T08:21:11;2.30;;;2.10;;
19664;SDS011;9980;51.020;7.772;2023-03-23T08:24:13;2.00;;;1.90;;
19664;SDS011;9980;51.020;7.772;2023-03-23T08:26:49;3.67;;;2.13;;
19664;SDS011;9980;51.020;7.772;2023-03-23T08:29:33;3.30;;;2.10;;
19664;SDS011;9980;51.020;7.772;2023-03-23T08:32:18;2.73;;;1.90;;
19664;SDS011;9980;51.020;7.772;2023-03-23T08:35:07;2.50;;;2.17;;
19664;SDS011;9980;51.020;7.772;2023-03-23T08:37:55;2.30;;;1.67;;
19664;SDS011;9980;51.020;7.772;2023-03-23T08:40:45;3.57;;;1.77;;
19664;SDS011;9980;51.020;7.772;2023-03-23T08:43:31;2.27;;;1.70;;
19664;SDS011;9980;51.020;7.772;2023-03-23T08:46:16;1.90;;;1.70;;
19664;SDS011;9980;51.020;7.772;2023-03-23T08:49:03;1.90;;;1.80;;
19664;SDS011;9980;51.020;7.772;2023-03-23T08:51:39;2.20;;;2.00;;
19664;SDS011;9980;51.020;7.772;2023-03-23T08:54:32;1.60;;;1.50;;
19664;SDS011;9980;51.020;7.772;2023-03-23T08:57:34;1.87;;;1.77;;
19664;SDS011;9980;51.020;7.772;2023-03-23T09:00:19;2.30;;;1.77;;
19664;SDS011;9980;51.020;7.772;2023-03-23T09:03:09;2.17;;;1.97;;
19664;SDS011;9980;51.020;7.772;2023-03-23T09:05:58;2.03;;;1.83;;
19664;SDS011;9980;51.020;7.772;2023-03-23T09:08:42;2.23;;;1.57;;
19664;SDS011;9980;51.020;7.772;2023-03-23T09:11:09;2.53;;;1.70;;
19664;SDS011;9980;51.020;7.772;2023-03-23T09:13:36;2.60;;;2.00;;
19664;SDS011;9980;51.020;7.772;2023-03-23T09:16:04;3.13;;;1.73;;
19664;SDS011;9980;51.020;7.772;2023-03-23T09:18:31;3.47;;;1.73;;
19664;SDS011;9980;51.020;7.772;2023-03-23T09:20:58;3.73;;;1.73;;
19664;SDS011;9980;51.020;7.772;2023-03-23T09:23:25;1.73;;;1.63;;
19664;SDS011;9980;51.020;7.772;2023-03-23T09:25:51;2.17;;;1.80;;
19664;SDS011;9980;51.020;7.772;2023-03-23T09:28:18;2.83;;;1.83;;
19664;SDS011;9980;51.020;7.772;2023-03-23T09:30:45;2.97;;;1.70;;
19664;SDS011;9980;51.020;7.772;2023-03-23T09:33:12;2.97;;;2.00;;
19664;SDS011;9980;51.020;7.772;2023-03-23T09:35:39;1.73;;;1.63;;
19664;SDS011;9980;51.020;7.772;2023-03-23T09:38:08;2.13;;;1.70;;
19664;SDS011;9980;51.020;7.772;2023-03-23T09:46:45;2.60;;;1.43;;
19664;SDS011;9980;51.020;7.772;2023-03-23T09:52:13;2.87;;;1.70;;
19664;SDS011;9980;51.020;7.772;2023-03-23T09:54:42;1.47;;;1.37;;
19664;SDS011;9980;51.020;7.772;2023-03-23T09:57:14;2.73;;;1.80;;
19664;SDS011;9980;51.020;7.772;2023-03-23T10:00:09;2.47;;;1.63;;
19664;SDS011;9980;51.020;7.772;2023-03-23T10:05:47;2.57;;;1.70;;
19664;SDS011;9980;51.020;7.772;2023-03-23T10:08:21;2.37;;;1.80;;
19664;SDS011;9980;51.020;7.772;2023-03-23T10:16:08;2.33;;;1.50;;
19664;SDS011;9980;51.020;7.772;2023-03-23T10:21:38;1.90;;;1.70;;
19664;SDS011;9980;51.020;7.772;2023-03-23T10:24:16;2.00;;;1.47;;
19664;SDS011;9980;51.020;7.772;2023-03-23T10:26:58;2.23;;;1.87;;
19664;SDS011;9980;51.020;7.772;2023-03-23T10:29:49;2.47;;;1.63;;
19664;SDS011;9980;51.020;7.772;2023-03-23T10:32:36;3.43;;;1.73;;
19664;SDS011;9980;51.020;7.772;2023-03-23T10:35:35;2.50;;;1.57;;
19664;SDS011;9980;51.020;7.772;2023-03-23T10:38:29;2.00;;;1.80;;
19664;SDS011;9980;51.020;7.772;2023-03-23T10:41:10;2.33;;;1.77;;
19664;SDS011;9980;51.020;7.772;2023-03-23T10:43:43;2.27;;;1.70;;
19664;SDS011;9980;51.020;7.772;2023-03-23T10:49:06;1.97;;;1.70;;
19664;SDS011;9980;51.020;7.772;2023-03-23T10:51:39;3.30;;;1.73;;
19664;SDS011;9980;51.020;7.772;2023-03-23T10:54:10;2.10;;;1.80;;
19664;SDS011;9980;51.020;7.772;2023-03-23T10:56:39;3.73;;;1.83;;
19664;SDS011;9980;51.020;7.772;2023-03-23T10:59:13;1.70;;;1.60;;
19664;SDS011;9980;51.020;7.772;2023-03-23T11:01:53;2.57;;;1.80;;
19664;SDS011;9980;51.020;7.772;2023-03-23T11:04:24;2.77;;;1.67;;
19664;SDS011;9980;51.020;7.772;2023-03-23T11:06:51;2.63;;;1.70;;
19664;SDS011;9980;51.020;7.772;2023-03-23T11:09:33;2.40;;;1.53;;
19664;SDS011;9980;51.020;7.772;2023-03-23T11:12:15;2.17;;;1.60;;
19664;SDS011;9980;51.020;7.772;2023-03-23T11:14:45;2.20;;;1.67;;
19664;SDS011;9980;51.020;7.772;2023-03-23T11:17:22;1.90;;;1.60;;
19664;SDS011;9980;51.020;7.772;2023-03-23T11:19:51;2.43;;;1.90;;
19664;SDS011;9980;51.020;7.772;2023-03-23T11:22:28;2.23;;;1.83;;
19664;SDS011;9980;51.020;7.772;2023-03-23T11:25:02;2.27;;;1.73;;
19664;SDS011;9980;51.020;7.772;2023-03-23T11:27:30;1.60;;;1.50;;
19664;SDS011;9980;51.020;7.772;2023-03-23T11:30:08;3.23;;;1.50;;
19664;SDS011;9980;51.020;7.772;2023-03-23T11:32:43;1.50;;;1.40;;
19664;SDS011;9980;51.020;7.772;2023-03-23T11:35:17;2.20;;;1.53;;
19664;SDS011;9980;51.020;7.772;2023-03-23T11:37:57;1.83;;;1.53;;
19664;SDS011;9980;51.020;7.772;2023-03-23T11:40:26;1.77;;;1.60;;
19664;SDS011;9980;51.020;7.772;2023-03-23T11:43:00;2.03;;;1.20;;
19664;SDS011;9980;51.020;7.772;2023-03-23T11:48:14;1.33;;;1.23;;
19664;SDS011;9980;51.020;7.772;2023-03-23T11:50:49;1.80;;;1.10;;
19664;SDS011;9980;51.020;7.772;2023-03-23T11:53:42;1.40;;;1.30;;
19664;SDS011;9980;51.020;7.772;2023-03-23T11:59:01;1.53;;;1.10;;
19664;SDS011;9980;51.020;7.772;2023-03-23T12:12:56;1.30;;;1.20;;
19664;SDS011;9980;51.020;7.772;2023-03-23T12:16:26;1.30;;;1.20;;
19664;SDS011;9980;51.020;7.772;2023-03-23T12:19:03;2.23;;;1.03;;
19664;SDS011;9980;51.020;7.772;2023-03-23T12:25:16;0.90;;;0.90;;
19664;SDS011;9980;51.020;7.772;2023-03-23T12:33:55;1.00;;;1.00;;
19664;SDS011;9980;51.020;7.772;2023-03-23T12:40:01;0.90;;;0.90;;
19664;SDS011;9980;51.020;7.772;2023-03-23T12:45:23;1.20;;;1.10;;
19664;SDS011;9980;51.020;7.772;2023-03-23T12:48:13;1.03;;;1.00;;
19664;SDS011;9980;51.020;7.772;2023-03-23T12:51:06;1.10;;;1.00;;
19664;SDS011;9980;51.020;7.772;2023-03-23T12:53:54;1.90;;;1.10;;
19664;SDS011;9980;51.020;7.772;2023-03-23T12:56:33;1.30;;;1.20;;
19664;SDS011;9980;51.020;7.772;2023-03-23T12:59:47;1.30;;;1.20;;
19664;SDS011;9980;51.020;7.772;2023-03-23T13:08:06;2.43;;;1.80;;
19664;SDS011;9980;51.020;7.772;2023-03-23T13:10:44;1.60;;;1.30;;
19664;SDS011;9980;51.020;7.772;2023-03-23T13:13:15;2.37;;;1.40;;
19664;SDS011;9980;51.020;7.772;2023-03-23T13:15:53;1.33;;;1.20;;
19664;SDS011;9980;51.020;7.772;2023-03-23T13:18:34;1.67;;;1.20;;
19664;SDS011;9980;51.020;7.772;2023-03-23T13:21:30;1.57;;;1.40;;
19664;SDS011;9980;51.020;7.772;2023-03-23T13:24:01;2.53;;;1.53;;
19664;SDS011;9980;51.020;7.772;2023-03-23T13:26:37;1.50;;;1.20;;
19664;SDS011;9980;51.020;7.772;2023-03-23T13:31:47;2.17;;;1.40;;
19664;SDS011;9980;51.020;7.772;2023-03-23T13:34:24;1.63;;;1.37;;
19664;SDS011;9980;51.020;7.772;2023-03-23T13:36:57;1.30;;;1.20;;
19664;SDS011;9980;51.020;7.772;2023-03-23T13:39:57;1.77;;;1.20;;
19664;SDS011;9980;51.020;7.772;2023-03-23T13:42:52;1.30;;;1.20;;
19664;SDS011;9980;51.020;7.772;2023-03-23T13:48:03;2.10;;;1.30;;
19664;SDS011;9980;51.020;7.772;2023-03-23T13:53:29;2.17;;;1.57;;
19664;SDS011;9980;51.020;7.772;2023-03-23T13:56:16;2.30;;;1.40;;
19664;SDS011;9980;51.020;7.772;2023-03-23T13:59:07;2.07;;;1.23;;
19664;SDS011;9980;51.020;7.772;2023-03-23T14:01:38;3.60;;;1.73;;
19664;SDS011;9980;51.020;7.772;2023-03-23T14:04:14;2.20;;;1.23;;
19664;SDS011;9980;51.020;7.772;2023-03-23T14:06:44;1.60;;;1.50;;
19664;SDS011;9980;51.020;7.772;2023-03-23T14:09:27;1.63;;;1.33;;
19664;SDS011;9980;51.020;7.772;2023-03-23T14:12:14;2.27;;;1.83;;
19664;SDS011;9980;51.020;7.772;2023-03-23T14:14:56;1.30;;;1.20;;
19664;SDS011;9980;51.020;7.772;2023-03-23T14:17:30;1.33;;;1.23;;
19664;SDS011;9980;51.020;7.772;2023-03-23T14:20:04;2.03;;;1.60;;
19664;SDS011;9980;51.020;7.772;2023-03-23T14:22:36;2.33;;;1.60;;
19664;SDS011;9980;51.020;7.772;2023-03-23T14:25:12;3.07;;;1.47;;
19664;SDS011;9980;51.020;7.772;2023-03-23T14:27:40;1.90;;;1.20;;
19664;SDS011;9980;51.020;7.772;2023-03-23T14:30:12;1.50;;;1.40;;
19664;SDS011;9980;51.020;7.772;2023-03-23T14:32:45;2.03;;;1.67;;
19664;SDS011;9980;51.020;7.772;2023-03-23T14:35:17;2.37;;;1.47;;
19664;SDS011;9980;51.020;7.772;2023-03-23T14:37:55;2.93;;;1.47;;
19664;SDS011;9980;51.020;7.772;2023-03-23T14:40:22;2.07;;;1.77;;
19664;SDS011;9980;51.020;7.772;2023-03-23T14:42:52;2.23;;;1.53;;
19664;SDS011;9980;51.020;7.772;2023-03-23T14:45:20;2.17;;;1.67;;
19664;SDS011;9980;51.020;7.772;2023-03-23T14:47:49;2.00;;;1.50;;
19664;SDS011;9980;51.020;7.772;2023-03-23T14:56:03;2.63;;;1.60;;
19664;SDS011;9980;51.020;7.772;2023-03-23T14:58:47;2.03;;;1.50;;
19664;SDS011;9980;51.020;7.772;2023-03-23T15:01:20;2.50;;;1.57;;
19664;SDS011;9980;51.020;7.772;2023-03-23T15:03:54;2.77;;;2.00;;
19664;SDS011;9980;51.020;7.772;2023-03-23T15:06:27;2.63;;;1.33;;
19664;SDS011;9980;51.020;7.772;2023-03-23T15:09:02;2.27;;;1.43;;
19664;SDS011;9980;51.020;7.772;2023-03-23T15:11:35;1.63;;;1.50;;
19664;SDS011;9980;51.020;7.772;2023-03-23T15:14:18;2.03;;;1.70;;
19664;SDS011;9980;51.020;7.772;2023-03-23T15:16:49;3.47;;;2.57;;
19664;SDS011;9980;51.020;7.772;2023-03-23T15:19:25;2.57;;;2.17;;
19664;SDS011;9980;51.020;7.772;2023-03-23T15:21:57;4.60;;;1.90;;
19664;SDS011;9980;51.020;7.772;2023-03-23T15:24:39;2.50;;;1.60;;
19664;SDS011;9980;51.020;7.772;2023-03-23T15:29:50;2.47;;;1.90;;
19664;SDS011;9980;51.020;7.772;2023-03-23T15:32:42;3.83;;;1.90;;
19664;SDS011;9980;51.020;7.772;2023-03-23T15:35:12;2.43;;;1.50;;
19664;SDS011;9980;51.020;7.772;2023-03-23T15:37:45;1.57;;;1.20;;
19664;SDS011;9980;51.020;7.772;2023-03-23T15:40:17;3.20;;;1.83;;
19664;SDS011;9980;51.020;7.772;2023-03-23T15:42:49;3.93;;;1.60;;
19664;SDS011;9980;51.020;7.772;2023-03-23T15:45:32;1.53;;;1.43;;
19664;SDS011;9980;51.020;7.772;2023-03-23T15:48:04;2.67;;;1.73;;
19664;SDS011;9980;51.020;7.772;2023-03-23T15:50:37;2.70;;;1.77;;
19664;SDS011;9980;51.020;7.772;2023-03-23T15:53:23;2.10;;;1.40;;
19664;SDS011;9980;51.020;7.772;2023-03-23T15:56:02;4.27;;;1.80;;
19664;SDS011;9980;51.020;7.772;2023-03-23T15:58:31;1.63;;;1.27;;
19664;SDS011;9980;51.020;7.772;2023-03-23T16:01:01;3.90;;;1.60;;
19664;SDS011;9980;51.020;7.772;2023-03-23T16:03:38;2.33;;;1.60;;
19664;SDS011;9980;51.020;7.772;2023-03-23T16:06:14;1.77;;;1.40;;
19664;SDS011;9980;51.020;7.772;2023-03-23T16:08:51;3.50;;;1.90;;
19664;SDS011;9980;51.020;7.772;2023-03-23T16:11:20;3.43;;;1.90;;
19664;SDS011;9980;51.020;7.772;2023-03-23T16:13:51;2.40;;;2.20;;
19664;SDS011;9980;51.020;7.772;2023-03-23T16:16:22;2.23;;;1.70;;
19664;SDS011;9980;51.020;7.772;2023-03-23T16:19:15;1.70;;;1.57;;
19664;SDS011;9980;51.020;7.772;2023-03-23T16:21:43;2.37;;;1.43;;
19664;SDS011;9980;51.020;7.772;2023-03-23T16:24:10;4.83;;;1.70;;
19664;SDS011;9980;51.020;7.772;2023-03-23T16:26:37;2.23;;;1.53;;
19664;SDS011;9980;51.020;7.772;2023-03-23T16:29:12;2.40;;;1.70;;
19664;SDS011;9980;51.020;7.772;2023-03-23T16:32:01;2.10;;;1.60;;
19664;SDS011;9980;51.020;7.772;2023-03-23T16:34:28;2.37;;;1.50;;
19664;SDS011;9980;51.020;7.772;2023-03-23T16:36:58;2.67;;;1.80;;
19664;SDS011;9980;51.020;7.772;2023-03-23T16:39:25;4.17;;;1.83;;
19664;SDS011;9980;51.020;7.772;2023-03-23T16:41:52;3.17;;;1.80;;
19664;SDS011;9980;51.020;7.772;2023-03-23T16:44:19;1.80;;;1.70;;
19664;SDS011;9980;51.020;7.772;2023-03-23T16:46:46;5.37;;;1.70;;
19664;SDS011;9980;51.020;7.772;2023-03-23T16:49:13;2.70;;;1.80;;
19664;SDS011;9980;51.020;7.772;2023-03-23T16:51:40;2.47;;;1.80;;
19664;SDS011;9980;51.020;7.772;2023-03-23T16:54:08;2.73;;;1.70;;
19664;SDS011;9980;51.020;7.772;2023-03-23T16:56:35;1.70;;;1.60;;
19664;SDS011;9980;51.020;7.772;2023-03-23T16:59:02;3.47;;;1.87;;
19664;SDS011;9980;51.020;7.772;2023-03-23T17:01:29;4.43;;;1.70;;
19664;SDS011;9980;51.020;7.772;2023-03-23T17:03:56;3.30;;;1.90;;
19664;SDS011;9980;51.020;7.772;2023-03-23T17:06:23;1.80;;;1.70;;
19664;SDS011;9980;51.020;7.772;2023-03-23T17:08:51;1.87;;;1.73;;
19664;SDS011;9980;51.020;7.772;2023-03-23T17:11:18;4.03;;;1.70;;
19664;SDS011;9980;51.020;7.772;2023-03-23T17:13:45;2.00;;;1.80;;
19664;SDS011;9980;51.020;7.772;2023-03-23T17:16:12;2.13;;;1.80;;
19664;SDS011;9980;51.020;7.772;2023-03-23T17:18:39;2.20;;;1.80;;
19664;SDS011;9980;51.020;7.772;2023-03-23T17:21:06;3.00;;;1.70;;